createdAt,value
2023-02-05T06:18:44.410Z,1027.74
2023-02-05T06:28:44.354Z,1027.66
2023-02-05T06:38:44.389Z,1027.51
2023-02-05T06:48:44.554Z,1027.63
2023-02-05T06:58:44.464Z,1027.59
2023-02-05T07:08:44.445Z,1027.65
2023-02-05T07:18:44.479Z,1027.65
2023-02-05T07:28:44.488Z,1027.71
2023-02-05T07:38:44.522Z,1027.62
2023-02-05T07:48:44.405Z,1027.59
2023-02-05T07:58:44.453Z,1027.49
2023-02-05T08:08:44.417Z,1027.38
2023-02-05T08:18:44.593Z,1027.41
2023-02-05T08:28:44.428Z,1027.53
2023-02-05T08:38:44.519Z,1027.40
2023-02-05T08:48:44.679Z,1027.30
2023-02-05T08:58:44.878Z,1027.44
2023-02-05T09:08:44.815Z,1027.46
2023-02-05T09:18:44.910Z,1027.52
2023-02-05T09:28:44.860Z,1027.39
2023-02-05T09:38:44.799Z,1027.48
2023-02-05T09:48:44.892Z,1027.46
2023-02-05T09:58:44.742Z,1027.48
2023-02-05T10:08:44.876Z,1027.67
2023-02-05T10:18:44.952Z,1027.51
2023-02-05T10:28:44.940Z,1027.59
2023-02-05T10:38:44.883Z,1027.73
2023-02-05T10:48:44.831Z,1027.66
2023-02-05T10:58:44.802Z,1027.54
2023-02-05T11:08:44.915Z,1027.52
2023-02-05T11:18:44.843Z,1027.53
2023-02-05T11:28:44.778Z,1027.78
2023-02-05T11:38:44.802Z,1027.86
2023-02-05T11:48:45.781Z,1027.80
2023-02-05T11:58:44.818Z,1028.13
2023-02-05T12:08:44.905Z,1028.26
2023-02-05T12:18:44.804Z,1028.37
2023-02-05T12:28:44.821Z,1028.49
2023-02-05T12:38:44.858Z,1028.28
2023-02-05T12:48:44.833Z,1028.24
2023-02-05T12:58:44.859Z,1027.84
2023-02-05T13:08:44.966Z,1027.66
2023-02-05T13:18:44.877Z,1027.74
2023-02-05T13:28:44.846Z,1028.03
2023-02-05T13:38:44.916Z,1028.20
2023-02-05T13:48:44.908Z,1028.13
2023-02-05T13:58:44.939Z,1028.27
2023-02-05T14:08:44.896Z,1028.31
2023-02-05T14:18:45.060Z,1028.32
2023-02-05T14:28:44.978Z,1028.63
2023-02-05T14:38:44.918Z,1028.66
2023-02-05T14:48:45.001Z,1028.81
2023-02-05T14:58:44.950Z,1029.05
2023-02-05T15:08:44.891Z,1028.87
2023-02-05T15:18:45.005Z,1029.19
2023-02-05T15:28:45.008Z,1029.41
2023-02-05T15:38:45.053Z,1029.65
2023-02-05T15:48:45.059Z,1029.49
2023-02-05T15:58:45.067Z,1029.65
2023-02-05T16:08:45.258Z,1029.69
2023-02-05T16:18:45.010Z,1030.05
2023-02-05T16:28:44.994Z,1029.97
2023-02-05T16:38:45.105Z,1030.00
2023-02-05T16:48:45.102Z,1030.23
2023-02-05T16:58:45.159Z,1030.39
2023-02-05T17:08:45.164Z,1030.21
2023-02-05T17:18:45.291Z,1030.18
2023-02-05T17:28:45.095Z,1030.48
2023-02-05T17:38:45.194Z,1030.72
2023-02-05T17:48:45.118Z,1030.89
2023-02-05T17:58:45.087Z,1030.90
2023-02-05T18:08:45.142Z,1030.97
2023-02-05T18:18:45.082Z,1031.22
2023-02-05T18:28:45.173Z,1031.23
2023-02-05T18:38:45.238Z,1031.30
2023-02-05T18:48:45.073Z,1031.38
2023-02-05T18:58:45.206Z,1031.53
2023-02-05T19:08:45.212Z,1031.52
2023-02-05T19:18:45.273Z,1031.63
